KRKW/RKW METAR and TAF weather

Enter ICAO airport designator
Station Type Date Time Source
KRKW METAR 2019/06/20 07:35 UTC NOAA

KRKW 200735Z AUTO 00000KT 4SM BR SCT002 BKN012 OVC100 18/18 A2977 RMK A01


Station Type Date Time Source
KRKW Decoded METAR 2019/06/20 07:35 UTC NOAA

Station name not available
Jun 20, 2019 - 03:35 AM EDT / 2019.06.20 0735 UTC
Wind: Calm:0
Visibility: 4 mile(s):0
Sky conditions: overcast
Weather: mist
Temperature: 64 F (18 C)
Dew Point: 64 F (18 C)
Relative Humidity: 100%
Pressure (altimeter): 29.77 in. Hg (1008 hPa)
ob: KRKW 200735Z AUTO 00000KT 4SM BR SCT002 BKN012 OVC100 18/18 A2977 RMK A01
cycle: 7

Station Type Date Time Source
KRKW TAF 2009/08/31 19:50 UTC NOAA

METAR KRKW 311950Z AUTO VRB05KT 10SM CLR 25/13 A3010
RMK AO1 T02500133 $

Example: see airport list